createdAt,value
2023-03-03T00:01:36.003Z,6.80
2023-03-03T00:04:04.316Z,2.67
2023-03-03T00:06:32.662Z,3.70
2023-03-03T00:09:00.970Z,3.33
2023-03-03T00:11:30.636Z,1.93
2023-03-03T00:13:59.006Z,3.63
2023-03-03T00:16:28.190Z,2.87
2023-03-03T00:18:56.636Z,2.23
2023-03-03T00:21:31.513Z,4.07
2023-03-03T00:24:18.773Z,2.20
2023-03-03T00:26:48.801Z,2.70
2023-03-03T00:29:33.125Z,4.10
2023-03-03T00:32:03.939Z,2.90
2023-03-03T00:34:32.374Z,3.50
2023-03-03T00:37:00.733Z,4.37
2023-03-03T00:39:30.319Z,3.00
2023-03-03T00:42:00.816Z,3.77
2023-03-03T00:44:41.439Z,2.63
2023-03-03T00:47:20.944Z,3.60
2023-03-03T00:49:49.336Z,1.47
2023-03-03T00:52:18.295Z,1.70
2023-03-03T00:54:46.693Z,1.97
2023-03-03T00:57:16.426Z,1.43
2023-03-03T00:59:44.705Z,3.67
2023-03-03T01:02:13.013Z,1.20
2023-03-03T01:04:41.328Z,1.30
2023-03-03T01:07:09.598Z,4.43
2023-03-03T01:09:37.910Z,4.00
2023-03-03T01:12:06.472Z,1.83
2023-03-03T01:14:36.121Z,1.80
2023-03-03T01:17:04.509Z,1.47
2023-03-03T01:19:32.831Z,2.97
2023-03-03T01:22:01.120Z,2.73
2023-03-03T01:24:29.397Z,2.60
2023-03-03T01:26:57.758Z,1.20
2023-03-03T01:29:26.036Z,1.50
2023-03-03T01:31:55.712Z,2.37
2023-03-03T01:34:24.052Z,2.70
2023-03-03T01:36:52.473Z,2.77
2023-03-03T01:39:20.772Z,1.13
2023-03-03T01:41:49.074Z,1.80
2023-03-03T01:44:17.347Z,1.77
2023-03-03T01:46:50.340Z,2.93
2023-03-03T01:49:20.581Z,2.23
2023-03-03T01:51:50.216Z,1.57
2023-03-03T01:54:19.801Z,1.10
2023-03-03T01:56:48.134Z,2.50
2023-03-03T01:59:17.456Z,2.33
2023-03-03T02:01:45.823Z,1.43
2023-03-03T02:04:14.221Z,1.63
2023-03-03T02:06:45.691Z,2.30
2023-03-03T02:09:14.700Z,1.43
2023-03-03T02:11:44.035Z,0.60
2023-03-03T02:14:12.405Z,1.10
2023-03-03T02:16:40.706Z,0.83
2023-03-03T02:19:09.893Z,1.53
2023-03-03T02:21:38.167Z,3.03
2023-03-03T02:24:09.825Z,1.00
2023-03-03T02:26:41.451Z,0.87
2023-03-03T02:29:09.964Z,0.93
2023-03-03T02:31:38.634Z,0.93
2023-03-03T02:34:07.096Z,1.00
2023-03-03T02:36:35.798Z,1.10
2023-03-03T02:39:05.294Z,0.83
2023-03-03T02:41:34.915Z,1.13
2023-03-03T02:44:04.996Z,1.40
2023-03-03T02:46:34.562Z,1.50
2023-03-03T02:49:02.930Z,0.67
2023-03-03T02:51:31.244Z,1.03
2023-03-03T02:53:59.543Z,1.07
2023-03-03T02:56:27.937Z,1.03
2023-03-03T02:58:56.236Z,0.57
2023-03-03T03:01:26.002Z,1.03
2023-03-03T03:03:54.445Z,0.63
2023-03-03T03:06:22.745Z,0.93
2023-03-03T03:08:51.054Z,0.97
2023-03-03T03:11:19.416Z,1.13
2023-03-03T03:13:47.716Z,0.30
2023-03-03T03:16:16.013Z,0.93
2023-03-03T03:18:45.685Z,3.20
2023-03-03T03:21:14.672Z,1.27
2023-03-03T03:23:42.963Z,0.97
2023-03-03T03:26:11.260Z,0.97
2023-03-03T03:28:39.651Z,0.50
2023-03-03T03:31:08.233Z,1.27
2023-03-03T03:33:36.639Z,1.80
2023-03-03T03:36:07.096Z,0.93
2023-03-03T03:38:36.722Z,1.77
2023-03-03T03:41:05.092Z,1.33
2023-03-03T03:43:33.416Z,2.00
2023-03-03T03:46:01.802Z,0.70
2023-03-03T03:48:30.267Z,0.37
2023-03-03T03:50:58.583Z,0.80
2023-03-03T03:53:28.307Z,1.07
2023-03-03T03:55:56.706Z,0.60
2023-03-03T03:58:25.018Z,0.70
2023-03-03T04:00:53.400Z,0.87
2023-03-03T04:03:21.822Z,0.87
2023-03-03T04:05:51.089Z,1.23
2023-03-03T04:08:19.432Z,0.47
2023-03-03T04:10:49.095Z,0.60
2023-03-03T04:13:17.368Z,0.63
2023-03-03T04:15:45.736Z,0.43
2023-03-03T04:18:14.019Z,0.90
2023-03-03T04:20:42.325Z,0.87
2023-03-03T04:23:10.805Z,0.50
2023-03-03T04:25:39.105Z,0.83
2023-03-03T04:28:09.464Z,0.50
2023-03-03T04:30:37.782Z,0.67
2023-03-03T04:33:06.077Z,0.70
2023-03-03T04:35:34.395Z,0.60
2023-03-03T04:38:02.740Z,0.80
2023-03-03T04:40:31.231Z,0.90
2023-03-03T04:42:59.498Z,1.20
2023-03-03T04:45:29.188Z,0.57
2023-03-03T04:47:57.471Z,0.70
2023-03-03T04:50:25.773Z,0.50
2023-03-03T04:52:54.084Z,0.40
2023-03-03T04:55:22.452Z,0.73
2023-03-03T04:57:50.792Z,0.30
2023-03-03T05:00:19.472Z,0.50
2023-03-03T05:02:49.110Z,0.77
2023-03-03T05:05:17.500Z,0.70
2023-03-03T05:07:45.842Z,0.50
2023-03-03T05:10:14.098Z,1.43
2023-03-03T05:12:42.355Z,0.60
2023-03-03T05:15:10.899Z,0.50
2023-03-03T05:17:39.198Z,0.60
2023-03-03T05:20:10.753Z,0.40
2023-03-03T05:22:39.110Z,0.67
2023-03-03T05:25:09.211Z,0.50
2023-03-03T05:27:37.517Z,0.60
2023-03-03T05:30:06.160Z,1.03
2023-03-03T05:32:34.661Z,1.47
2023-03-03T05:35:02.958Z,2.30
2023-03-03T05:37:32.612Z,1.30
2023-03-03T05:40:00.917Z,1.17
2023-03-03T05:42:29.253Z,0.67
2023-03-03T05:44:57.940Z,0.67
2023-03-03T05:47:26.279Z,2.90
2023-03-03T05:49:54.599Z,1.27
2023-03-03T05:52:24.277Z,1.23
2023-03-03T05:54:53.932Z,0.97
2023-03-03T05:57:22.212Z,0.60
2023-03-03T05:59:50.507Z,1.37
2023-03-03T06:02:18.881Z,0.40
2023-03-03T06:04:47.190Z,0.60
2023-03-03T06:07:15.448Z,0.80
2023-03-03T06:09:43.778Z,0.40
2023-03-03T06:12:13.448Z,0.40
2023-03-03T06:14:41.762Z,0.97
2023-03-03T06:17:10.811Z,0.77
2023-03-03T06:19:39.182Z,0.70
2023-03-03T06:22:07.453Z,1.00
2023-03-03T06:24:35.820Z,1.43
2023-03-03T06:27:04.119Z,0.87
2023-03-03T06:29:33.774Z,0.93
2023-03-03T06:32:02.164Z,1.83
2023-03-03T06:34:30.824Z,0.40
2023-03-03T06:36:59.809Z,0.50
2023-03-03T06:39:28.227Z,1.20
2023-03-03T06:41:56.547Z,0.40
2023-03-03T06:44:25.471Z,1.67
2023-03-03T06:46:57.345Z,0.60
2023-03-03T06:49:25.655Z,0.43
2023-03-03T06:51:53.933Z,0.90
2023-03-03T06:54:25.051Z,0.93
2023-03-03T06:56:54.649Z,1.00
2023-03-03T06:59:23.181Z,1.90
2023-03-03T07:01:51.830Z,0.40
2023-03-03T07:04:28.766Z,1.10
2023-03-03T07:06:57.158Z,0.37
2023-03-03T07:09:25.985Z,1.73
2023-03-03T07:11:54.430Z,0.50
2023-03-03T07:14:22.707Z,1.40
2023-03-03T07:16:54.947Z,0.40
2023-03-03T07:19:25.570Z,0.67
2023-03-03T07:21:53.879Z,0.43
2023-03-03T07:24:27.844Z,0.83
2023-03-03T07:26:56.988Z,0.30
2023-03-03T07:29:26.545Z,0.43
2023-03-03T07:31:55.180Z,0.37
2023-03-03T07:34:25.216Z,0.57
2023-03-03T07:36:55.451Z,0.80
2023-03-03T07:39:27.643Z,0.67
2023-03-03T07:41:56.641Z,0.43
2023-03-03T07:44:33.481Z,0.40
2023-03-03T07:47:02.678Z,0.23
2023-03-03T07:49:34.584Z,0.67
2023-03-03T07:52:02.932Z,1.80
2023-03-03T07:54:37.362Z,1.33
2023-03-03T07:57:10.001Z,0.60
2023-03-03T07:59:38.402Z,1.13
2023-03-03T08:02:06.927Z,0.30
2023-03-03T08:04:39.185Z,0.83
2023-03-03T08:07:11.258Z,0.33
2023-03-03T08:09:40.717Z,0.40
2023-03-03T08:12:33.280Z,0.47
2023-03-03T08:15:05.705Z,0.70
2023-03-03T08:17:36.442Z,0.63
2023-03-03T08:20:08.597Z,2.33
2023-03-03T08:22:37.214Z,0.63
2023-03-03T08:25:05.658Z,0.70
2023-03-03T08:27:34.018Z,1.93
2023-03-03T08:30:02.319Z,0.97
2023-03-03T08:32:30.775Z,1.37
2023-03-03T08:34:59.213Z,0.53
2023-03-03T08:37:28.922Z,0.40
2023-03-03T08:39:57.248Z,0.63
2023-03-03T08:42:25.604Z,0.50
2023-03-03T08:44:53.893Z,0.50
2023-03-03T08:47:22.210Z,1.40
2023-03-03T08:49:50.563Z,1.50
2023-03-03T08:52:18.949Z,0.60
2023-03-03T08:54:48.722Z,0.40
2023-03-03T08:57:17.064Z,1.13
2023-03-03T08:59:47.774Z,0.30
2023-03-03T09:02:17.201Z,0.27
2023-03-03T09:04:45.594Z,1.33
2023-03-03T09:07:13.942Z,0.67
2023-03-03T09:09:42.301Z,1.60
2023-03-03T09:12:15.218Z,0.37
2023-03-03T09:14:43.709Z,0.30
2023-03-03T09:17:20.050Z,0.10
2023-03-03T09:19:48.400Z,0.40
2023-03-03T09:22:20.210Z,0.20
2023-03-03T09:24:48.640Z,0.87
2023-03-03T09:27:20.465Z,0.30
2023-03-03T09:29:48.802Z,0.53
2023-03-03T09:32:30.773Z,0.43
2023-03-03T09:34:59.561Z,0.20
2023-03-03T09:37:28.795Z,0.20
2023-03-03T09:39:57.544Z,0.40
2023-03-03T09:42:33.596Z,0.30
2023-03-03T09:45:14.527Z,0.20
2023-03-03T09:47:45.503Z,0.57
2023-03-03T09:50:17.332Z,0.40
2023-03-03T09:52:47.770Z,0.10
2023-03-03T09:55:20.453Z,0.40
2023-03-03T09:58:09.962Z,0.53
2023-03-03T10:00:42.244Z,0.30
2023-03-03T10:03:25.056Z,0.87
2023-03-03T10:05:54.006Z,0.50
2023-03-03T10:08:26.066Z,0.40
2023-03-03T10:11:03.321Z,0.23
2023-03-03T10:13:40.718Z,0.20
2023-03-03T10:16:15.047Z,0.60
2023-03-03T10:18:45.855Z,0.30
2023-03-03T10:21:16.483Z,0.30
2023-03-03T10:23:48.592Z,0.37
2023-03-03T10:26:19.293Z,0.20
2023-03-03T10:29:06.023Z,0.63
2023-03-03T10:31:39.217Z,0.40
2023-03-03T10:34:09.734Z,0.83
2023-03-03T10:36:41.575Z,0.50
2023-03-03T10:39:17.429Z,0.83
2023-03-03T10:41:49.804Z,0.20
2023-03-03T10:44:20.718Z,0.20
2023-03-03T10:46:54.467Z,0.30
2023-03-03T10:49:24.133Z,0.20
2023-03-03T10:51:56.056Z,0.33
2023-03-03T10:54:30.552Z,0.20
2023-03-03T10:57:00.117Z,0.20
2023-03-03T10:59:33.519Z,0.13
2023-03-03T11:02:06.778Z,0.30
2023-03-03T11:04:46.005Z,0.40
2023-03-03T11:07:15.365Z,0.40
2023-03-03T11:09:47.138Z,0.10
2023-03-03T11:12:22.309Z,0.10
2023-03-03T11:14:52.493Z,0.30
2023-03-03T11:17:23.713Z,0.20
2023-03-03T11:19:57.752Z,0.20
2023-03-03T11:22:41.552Z,0.13
2023-03-03T11:25:12.807Z,0.40
2023-03-03T11:27:56.291Z,0.60
2023-03-03T11:30:30.678Z,0.30
2023-03-03T11:33:03.443Z,0.30
2023-03-03T11:35:33.711Z,0.30
2023-03-03T11:38:05.358Z,1.30
2023-03-03T11:40:34.514Z,0.20
2023-03-03T11:43:03.965Z,0.47
2023-03-03T11:45:33.519Z,0.97
2023-03-03T11:48:04.349Z,0.20
2023-03-03T11:50:33.092Z,0.10
2023-03-03T11:53:03.921Z,0.30
2023-03-03T11:55:32.767Z,0.37
2023-03-03T11:58:05.669Z,0.60
2023-03-03T12:00:34.734Z,0.20
2023-03-03T12:03:18.285Z,0.20
2023-03-03T12:05:48.540Z,0.20
2023-03-03T12:08:23.765Z,0.30
2023-03-03T12:10:53.058Z,0.53
2023-03-03T12:13:22.839Z,0.30
2023-03-03T12:15:51.938Z,0.20
2023-03-03T12:18:32.805Z,0.80
2023-03-03T12:21:13.235Z,0.27
2023-03-03T12:23:46.507Z,0.40
2023-03-03T12:26:15.278Z,0.73
2023-03-03T12:28:44.111Z,0.20
2023-03-03T12:31:23.897Z,0.10
2023-03-03T12:33:56.660Z,0.20
2023-03-03T12:36:33.011Z,0.53
2023-03-03T12:39:02.580Z,0.57
2023-03-03T12:41:32.523Z,1.80
2023-03-03T12:44:01.712Z,1.00
2023-03-03T12:46:31.292Z,0.90
2023-03-03T12:49:01.161Z,0.20
2023-03-03T12:51:33.369Z,0.13
2023-03-03T12:54:16.447Z,0.30
2023-03-03T12:56:46.889Z,0.37
2023-03-03T12:59:18.352Z,0.30
2023-03-03T13:01:50.775Z,0.20
2023-03-03T13:04:25.518Z,0.60
2023-03-03T13:06:54.870Z,0.20
2023-03-03T13:09:27.578Z,0.30
2023-03-03T13:12:26.049Z,0.20
2023-03-03T13:14:55.434Z,0.20
2023-03-03T13:17:24.897Z,0.30
2023-03-03T13:19:56.612Z,0.20
2023-03-03T13:22:35.989Z,0.20
2023-03-03T13:25:05.295Z,2.03
2023-03-03T13:27:34.420Z,0.27
2023-03-03T13:30:03.109Z,0.43
2023-03-03T13:32:33.308Z,0.87
2023-03-03T13:35:03.608Z,0.20
2023-03-03T13:37:32.682Z,0.30
2023-03-03T13:40:01.962Z,0.83
2023-03-03T13:42:31.920Z,0.57
2023-03-03T13:45:00.258Z,0.33
2023-03-03T13:47:30.374Z,0.47
2023-03-03T13:50:05.627Z,0.20
2023-03-03T13:52:34.517Z,0.20
2023-03-03T13:55:08.824Z,0.37
2023-03-03T13:57:41.448Z,0.33
2023-03-03T14:00:14.628Z,0.30
2023-03-03T14:02:46.115Z,0.20
2023-03-03T14:05:17.734Z,0.57
2023-03-03T14:07:47.056Z,0.57
2023-03-03T14:10:16.979Z,0.60
2023-03-03T14:12:46.990Z,0.60
2023-03-03T14:15:18.044Z,0.13
2023-03-03T14:17:49.745Z,0.30
2023-03-03T14:20:21.882Z,0.40
2023-03-03T14:22:52.769Z,0.40
2023-03-03T14:25:21.208Z,0.07
2023-03-03T14:28:00.631Z,0.50
2023-03-03T14:30:35.966Z,0.20
2023-03-03T14:33:05.608Z,0.43
2023-03-03T14:35:36.213Z,2.53
2023-03-03T14:38:04.756Z,0.50
2023-03-03T14:40:33.519Z,0.17
2023-03-03T14:43:02.171Z,0.30
2023-03-03T14:45:36.205Z,0.20
2023-03-03T14:48:08.652Z,0.47
2023-03-03T14:50:38.951Z,0.10
2023-03-03T14:53:17.108Z,0.23
2023-03-03T14:55:45.946Z,0.10
2023-03-03T14:58:27.512Z,1.37
2023-03-03T15:01:10.785Z,1.13
2023-03-03T15:03:39.222Z,0.30
2023-03-03T15:06:13.910Z,0.30
2023-03-03T15:08:42.576Z,0.20
2023-03-03T15:11:15.085Z,0.30
2023-03-03T15:13:43.408Z,0.30
2023-03-03T15:16:12.787Z,0.20
2023-03-03T15:19:08.422Z,1.07
2023-03-03T15:21:38.270Z,0.27
2023-03-03T15:24:07.880Z,0.27
2023-03-03T15:26:38.895Z,0.57
2023-03-03T15:29:08.765Z,0.63
2023-03-03T15:31:40.940Z,0.30
2023-03-03T15:34:23.110Z,0.20
2023-03-03T15:36:54.069Z,0.30
2023-03-03T15:39:24.195Z,0.20
2023-03-03T15:41:55.255Z,0.20
2023-03-03T15:44:24.580Z,0.20
2023-03-03T15:46:59.914Z,0.67
2023-03-03T15:49:38.406Z,0.20
2023-03-03T15:52:21.200Z,0.20
2023-03-03T15:54:50.985Z,0.20
2023-03-03T15:57:19.602Z,0.23
2023-03-03T16:00:01.147Z,0.20
2023-03-03T16:02:30.092Z,0.73
2023-03-03T16:05:00.272Z,0.23
2023-03-03T16:07:32.914Z,0.20
2023-03-03T16:10:05.705Z,0.60
2023-03-03T16:12:36.209Z,0.37
2023-03-03T16:15:08.372Z,0.77
2023-03-03T16:17:39.488Z,0.30
2023-03-03T16:20:11.919Z,0.40
2023-03-03T16:22:46.679Z,0.23
2023-03-03T16:25:23.215Z,0.37
2023-03-03T16:27:52.534Z,0.30
2023-03-03T16:30:25.665Z,0.20
2023-03-03T16:32:55.144Z,0.17
2023-03-03T16:35:24.457Z,0.60
2023-03-03T16:37:58.316Z,0.40
2023-03-03T16:40:27.946Z,0.20
2023-03-03T16:42:59.220Z,0.20
2023-03-03T16:45:28.602Z,2.43
2023-03-03T16:48:01.608Z,0.20
2023-03-03T16:50:32.205Z,0.20
2023-03-03T16:53:04.444Z,0.50
2023-03-03T16:55:34.057Z,0.30
2023-03-03T16:58:06.283Z,0.77
2023-03-03T17:00:37.142Z,0.20
2023-03-03T17:03:07.877Z,0.30
2023-03-03T17:05:38.389Z,2.27
2023-03-03T17:08:13.400Z,0.30
2023-03-03T17:10:43.320Z,0.30
2023-03-03T17:13:18.658Z,0.47
2023-03-03T17:15:49.600Z,0.10
2023-03-03T17:18:20.036Z,0.30
2023-03-03T17:20:49.554Z,0.30
2023-03-03T17:23:25.434Z,1.90
2023-03-03T17:25:54.988Z,1.93
2023-03-03T17:28:27.278Z,0.30
2023-03-03T17:30:56.801Z,0.30
2023-03-03T17:33:31.512Z,0.40
2023-03-03T17:36:02.993Z,0.30
2023-03-03T17:38:36.281Z,0.20
2023-03-03T17:41:05.307Z,0.30
2023-03-03T17:43:34.925Z,0.40
2023-03-03T17:46:03.536Z,0.20
2023-03-03T17:48:46.417Z,0.20
2023-03-03T17:51:23.013Z,0.67
2023-03-03T17:54:19.272Z,0.20
2023-03-03T17:56:50.632Z,0.57
2023-03-03T17:59:22.503Z,0.53
2023-03-03T18:01:54.472Z,0.30
2023-03-03T18:04:28.600Z,0.40
2023-03-03T18:07:12.512Z,0.20
2023-03-03T18:09:44.088Z,0.23
2023-03-03T18:12:15.410Z,0.40
2023-03-03T18:14:58.569Z,0.10
2023-03-03T18:17:36.552Z,0.20
2023-03-03T18:20:19.810Z,0.67
2023-03-03T18:22:48.475Z,0.33
2023-03-03T18:25:17.046Z,0.40
2023-03-03T18:27:46.744Z,0.27
2023-03-03T18:30:35.783Z,0.63
2023-03-03T18:33:05.119Z,0.33
2023-03-03T18:35:35.523Z,1.13
2023-03-03T18:38:19.896Z,0.20
2023-03-03T18:40:50.689Z,0.77
2023-03-03T18:43:37.728Z,1.00
2023-03-03T18:46:07.408Z,0.20
2023-03-03T18:48:48.856Z,0.30
2023-03-03T18:51:30.075Z,0.23
2023-03-03T18:54:01.676Z,0.50
2023-03-03T18:56:43.987Z,0.50
2023-03-03T18:59:12.432Z,0.30
2023-03-03T19:01:43.897Z,0.33
2023-03-03T19:04:22.654Z,0.30
2023-03-03T19:06:58.472Z,0.60
2023-03-03T19:09:41.639Z,1.23
2023-03-03T19:12:10.319Z,0.40
2023-03-03T19:14:38.742Z,0.60
2023-03-03T19:17:21.931Z,0.20
2023-03-03T19:20:02.978Z,0.50
2023-03-03T19:22:31.854Z,0.20
2023-03-03T19:25:06.165Z,0.40
2023-03-03T19:27:34.554Z,0.67
2023-03-03T19:30:06.845Z,1.37
2023-03-03T19:32:39.002Z,1.63
2023-03-03T19:35:14.550Z,3.73
2023-03-03T19:37:46.177Z,2.13
2023-03-03T19:40:18.450Z,3.60
2023-03-03T19:42:47.834Z,2.37
2023-03-03T19:45:21.416Z,1.67
2023-03-03T19:47:50.048Z,4.83
2023-03-03T19:50:26.297Z,4.63
2023-03-03T19:52:57.949Z,4.40
2023-03-03T19:55:29.193Z,5.43
2023-03-03T19:58:00.824Z,10.00
2023-03-03T20:00:30.068Z,7.17
2023-03-03T20:03:02.132Z,11.50
2023-03-03T20:05:32.744Z,8.63
2023-03-03T20:08:02.613Z,8.80
2023-03-03T20:10:37.070Z,13.67
2023-03-03T20:13:07.971Z,9.73
2023-03-03T20:15:41.501Z,10.67
2023-03-03T20:18:30.693Z,9.30
2023-03-03T20:21:03.418Z,10.37
2023-03-03T20:23:33.315Z,9.70
2023-03-03T20:26:02.390Z,13.90
2023-03-03T20:28:47.536Z,11.60
2023-03-03T20:31:16.708Z,10.87
2023-03-03T20:33:49.009Z,8.87
2023-03-03T20:36:21.041Z,7.13
2023-03-03T20:38:52.700Z,9.30
2023-03-03T20:41:24.934Z,13.87
2023-03-03T20:43:56.794Z,13.30
2023-03-03T20:46:27.947Z,10.83
2023-03-03T20:49:00.164Z,6.80
2023-03-03T20:51:31.864Z,8.90
2023-03-03T20:54:02.451Z,9.47
2023-03-03T20:56:31.647Z,9.13
2023-03-03T20:59:02.941Z,8.37
2023-03-03T21:01:32.950Z,11.37
2023-03-03T21:04:16.214Z,9.53
2023-03-03T21:06:45.899Z,8.77
2023-03-03T21:09:23.633Z,9.30
2023-03-03T21:11:51.902Z,8.73
2023-03-03T21:14:21.195Z,7.60
2023-03-03T21:16:49.565Z,15.23
2023-03-03T21:19:25.309Z,10.00
2023-03-03T21:21:55.073Z,8.13
2023-03-03T21:24:23.371Z,7.97
2023-03-03T21:26:52.689Z,9.20
2023-03-03T21:29:21.761Z,7.60
2023-03-03T21:31:50.295Z,12.77
2023-03-03T21:34:28.506Z,9.87
2023-03-03T21:36:58.165Z,8.90
2023-03-03T21:39:27.608Z,8.40
2023-03-03T21:41:56.494Z,9.07
2023-03-03T21:44:31.680Z,6.93
2023-03-03T21:47:00.112Z,5.20
2023-03-03T21:49:28.546Z,7.00
2023-03-03T21:51:58.374Z,6.90
2023-03-03T21:54:26.740Z,8.03
2023-03-03T21:56:55.089Z,8.33
2023-03-03T21:59:23.462Z,9.40
2023-03-03T22:01:51.769Z,10.53
2023-03-03T22:04:20.547Z,5.97
2023-03-03T22:06:48.957Z,5.53
2023-03-03T22:09:18.627Z,10.93
2023-03-03T22:11:47.089Z,6.13
2023-03-03T22:14:15.444Z,9.10
2023-03-03T22:16:43.831Z,7.60
2023-03-03T22:19:12.153Z,5.50
2023-03-03T22:21:40.628Z,8.87
2023-03-03T22:24:09.306Z,5.40
2023-03-03T22:26:38.993Z,6.47
2023-03-03T22:29:07.405Z,6.20
2023-03-03T22:31:35.769Z,5.97
2023-03-03T22:34:04.559Z,6.60
2023-03-03T22:36:32.897Z,8.07
2023-03-03T22:39:01.979Z,4.73
2023-03-03T22:41:30.271Z,6.43
2023-03-03T22:43:59.942Z,4.70
2023-03-03T22:46:28.392Z,8.10
2023-03-03T22:48:56.743Z,4.83
2023-03-03T22:51:26.129Z,6.37
2023-03-03T22:53:54.519Z,4.47
2023-03-03T22:56:22.868Z,4.47
2023-03-03T22:58:51.215Z,7.00
2023-03-03T23:01:21.078Z,5.73
2023-03-03T23:03:50.132Z,6.67
2023-03-03T23:06:18.447Z,4.40
2023-03-03T23:08:46.932Z,5.60
2023-03-03T23:11:15.224Z,4.47
2023-03-03T23:13:43.492Z,6.97
2023-03-03T23:16:11.977Z,3.27
2023-03-03T23:18:42.262Z,4.63
2023-03-03T23:21:10.558Z,4.80
2023-03-03T23:23:38.929Z,6.77
2023-03-03T23:26:07.271Z,4.73
2023-03-03T23:28:35.557Z,6.13
2023-03-03T23:31:04.201Z,4.73
2023-03-03T23:33:32.540Z,2.87
2023-03-03T23:36:02.267Z,4.50
2023-03-03T23:38:30.640Z,5.07
2023-03-03T23:40:58.943Z,2.73
2023-03-03T23:43:27.242Z,3.07
2023-03-03T23:45:55.541Z,2.80
2023-03-03T23:48:23.810Z,5.27
2023-03-03T23:50:52.146Z,2.10
2023-03-03T23:53:21.829Z,2.73
2023-03-03T23:55:50.163Z,3.63
2023-03-03T23:58:18.495Z,3.37
